createdAt,value
2023-01-04T00:02:05.719Z,0.88
2023-01-04T00:04:34.270Z,0.86
2023-01-04T00:07:02.685Z,0.78
2023-01-04T00:09:31.219Z,0.75
2023-01-04T00:11:59.652Z,0.64
2023-01-04T00:14:28.161Z,0.56
2023-01-04T00:16:57.968Z,0.54
2023-01-04T00:19:26.430Z,0.54
2023-01-04T00:21:54.902Z,0.51
2023-01-04T00:24:23.531Z,0.51
2023-01-04T00:26:51.994Z,0.47
2023-01-04T00:29:20.670Z,0.43
2023-01-04T00:31:49.343Z,0.42
2023-01-04T00:34:19.958Z,0.35
2023-01-04T00:36:48.914Z,0.43
2023-01-04T00:39:18.182Z,0.53
2023-01-04T00:42:04.227Z,0.53
2023-01-04T00:44:34.447Z,0.48
2023-01-04T00:47:04.840Z,0.56
2023-01-04T00:49:34.907Z,0.60
2023-01-04T00:52:04.632Z,0.62
2023-01-04T00:54:33.103Z,0.66
2023-01-04T00:57:01.599Z,0.65
2023-01-04T00:59:30.025Z,0.64
2023-01-04T01:01:58.722Z,0.66
2023-01-04T01:04:27.550Z,0.62
2023-01-04T01:06:57.402Z,0.63
2023-01-04T01:09:26.105Z,0.72
2023-01-04T01:11:55.201Z,0.70
2023-01-04T01:14:26.274Z,0.77
2023-01-04T01:16:57.773Z,0.80
2023-01-04T01:19:28.900Z,0.71
2023-01-04T01:21:59.441Z,0.69
2023-01-04T01:24:28.380Z,0.69
2023-01-04T01:26:57.514Z,0.59
2023-01-04T01:29:26.297Z,0.55
2023-01-04T01:31:54.880Z,0.63
2023-01-04T01:34:23.533Z,0.63
2023-01-04T01:36:51.966Z,0.65
2023-01-04T01:39:21.812Z,0.79
2023-01-04T01:41:50.676Z,0.99
2023-01-04T01:44:59.421Z,1.08
2023-01-04T01:47:33.163Z,1.19
2023-01-04T01:50:02.714Z,1.17
2023-01-04T01:52:33.731Z,1.12
2023-01-04T01:55:08.515Z,1.12
2023-01-04T01:57:38.895Z,1.17
2023-01-04T02:00:12.760Z,1.18
2023-01-04T02:02:54.744Z,1.32
2023-01-04T02:05:23.588Z,1.30
2023-01-04T02:07:52.862Z,1.31
2023-01-04T02:10:23.790Z,1.25
2023-01-04T02:12:53.846Z,1.30
2023-01-04T02:15:28.424Z,1.30
2023-01-04T02:18:05.738Z,1.37
2023-01-04T02:20:41.148Z,1.43
2023-01-04T02:23:45.129Z,1.41
2023-01-04T02:26:41.950Z,1.51
2023-01-04T02:29:48.094Z,1.51
2023-01-04T02:32:27.631Z,1.42
2023-01-04T02:35:04.441Z,1.38
2023-01-04T02:37:42.415Z,1.36
2023-01-04T02:40:19.154Z,1.30
2023-01-04T02:43:16.038Z,1.31
2023-01-04T02:45:53.999Z,1.31
2023-01-04T02:48:41.515Z,1.40
2023-01-04T02:51:27.587Z,1.23
2023-01-04T02:53:58.406Z,1.19
2023-01-04T02:56:38.809Z,1.17
2023-01-04T02:59:24.279Z,0.93
2023-01-04T03:02:20.253Z,0.68
2023-01-04T03:05:18.497Z,0.64
2023-01-04T03:07:53.387Z,0.57
2023-01-04T03:10:27.241Z,0.56
2023-01-04T03:13:02.246Z,0.44
2023-01-04T03:15:34.913Z,0.40
2023-01-04T03:18:11.151Z,0.42
2023-01-04T03:20:43.605Z,0.32
2023-01-04T03:23:34.158Z,0.19
2023-01-04T03:26:25.054Z,0.21
2023-01-04T03:29:12.848Z,0.20
2023-01-04T03:32:03.234Z,0.30
2023-01-04T03:34:49.186Z,0.35
2023-01-04T03:37:25.465Z,0.40
2023-01-04T03:40:24.113Z,0.45
2023-01-04T03:43:18.628Z,0.40
2023-01-04T03:46:09.236Z,0.35
2023-01-04T03:48:44.299Z,0.27
2023-01-04T03:51:16.118Z,0.29
2023-01-04T03:53:53.790Z,0.24
2023-01-04T03:56:24.967Z,0.16
2023-01-04T03:58:54.657Z,0.08
2023-01-04T04:01:26.017Z,0.05
2023-01-04T04:04:12.490Z,0.08
2023-01-04T04:06:58.897Z,-0.02
2023-01-04T04:09:28.746Z,-0.14
2023-01-04T04:11:57.605Z,-0.14
2023-01-04T04:14:26.137Z,-0.14
2023-01-04T04:16:54.755Z,-0.14
2023-01-04T04:19:23.337Z,-0.22
2023-01-04T04:21:51.791Z,-0.27
2023-01-04T04:24:21.762Z,-0.29
2023-01-04T04:26:51.702Z,-0.28
2023-01-04T04:29:20.177Z,-0.30
2023-01-04T04:31:48.831Z,-0.43
2023-01-04T04:34:17.443Z,-0.48
2023-01-04T04:36:45.994Z,-0.50
2023-01-04T04:39:14.580Z,-0.52
2023-01-04T04:41:42.165Z,-0.69
2023-01-04T04:44:14.272Z,-0.69
2023-01-04T04:46:42.937Z,-0.73
2023-01-04T04:49:13.636Z,-0.70
2023-01-04T04:51:42.687Z,-0.66
2023-01-04T04:54:12.839Z,-0.62
2023-01-04T04:56:41.319Z,-0.61
2023-01-04T04:59:09.801Z,-0.59
2023-01-04T05:01:39.862Z,-0.57
2023-01-04T05:04:08.639Z,-0.63
2023-01-04T05:06:37.115Z,-0.62
2023-01-04T05:09:05.602Z,-0.60
2023-01-04T05:11:52.119Z,-0.65
2023-01-04T05:14:20.706Z,-0.64
2023-01-04T05:16:50.665Z,-0.68
2023-01-04T05:19:19.288Z,-0.67
2023-01-04T05:21:47.793Z,-0.59
2023-01-04T05:24:16.283Z,-0.60
2023-01-04T05:26:44.948Z,-0.58
2023-01-04T05:29:34.258Z,-0.60
2023-01-04T05:32:03.357Z,-0.56
2023-01-04T05:34:31.878Z,-0.58
2023-01-04T05:37:00.374Z,-0.66
2023-01-04T05:39:30.814Z,-0.48
2023-01-04T05:42:17.077Z,-0.52
2023-01-04T05:44:45.576Z,-0.42
2023-01-04T05:47:15.526Z,-0.43
2023-01-04T05:49:44.101Z,-0.36
2023-01-04T05:52:12.820Z,-0.35
2023-01-04T05:54:41.573Z,-0.25
2023-01-04T05:57:10.696Z,-0.25
2023-01-04T05:59:42.081Z,-0.20
2023-01-04T06:02:18.808Z,-0.08
2023-01-04T06:04:51.489Z,-0.07
2023-01-04T06:07:23.878Z,-0.04
2023-01-04T06:09:52.415Z,-0.04
2023-01-04T06:12:20.864Z,0.02
2023-01-04T06:14:49.525Z,0.06
2023-01-04T06:17:19.579Z,0.12
2023-01-04T06:19:48.099Z,0.17
2023-01-04T06:22:16.664Z,0.11
2023-01-04T06:24:45.235Z,0.13
2023-01-04T06:27:13.795Z,0.19
2023-01-04T06:29:42.245Z,0.08
2023-01-04T06:32:10.819Z,0.18
2023-01-04T06:34:40.658Z,0.10
2023-01-04T06:37:09.792Z,0.11
2023-01-04T06:39:38.347Z,0.11
2023-01-04T06:42:27.145Z,0.09
2023-01-04T06:44:55.608Z,0.10
2023-01-04T06:47:24.044Z,0.23
2023-01-04T06:49:53.966Z,0.28
2023-01-04T06:52:22.565Z,0.32
2023-01-04T06:54:51.004Z,0.36
2023-01-04T06:57:19.465Z,0.43
2023-01-04T06:59:48.102Z,0.47
2023-01-04T07:02:17.503Z,0.54
2023-01-04T07:04:46.080Z,0.58
2023-01-04T07:07:15.951Z,0.60
2023-01-04T07:09:44.416Z,0.71
2023-01-04T07:12:12.893Z,0.77
2023-01-04T07:14:41.928Z,0.78
2023-01-04T07:17:10.375Z,0.84
2023-01-04T07:19:38.929Z,0.91
2023-01-04T07:22:07.502Z,0.94
2023-01-04T07:24:37.353Z,0.97
2023-01-04T07:27:05.848Z,1.02
2023-01-04T07:29:34.343Z,1.10
2023-01-04T07:32:02.996Z,1.12
2023-01-04T07:34:31.516Z,1.17
2023-01-04T07:36:59.971Z,1.22
2023-01-04T07:39:28.455Z,1.28
2023-01-04T07:41:58.309Z,1.35
2023-01-04T07:44:28.087Z,1.35
2023-01-04T07:46:57.554Z,1.37
2023-01-04T07:49:26.063Z,1.40
2023-01-04T07:51:54.605Z,1.46
2023-01-04T07:54:24.029Z,1.52
2023-01-04T07:56:52.755Z,1.56
2023-01-04T07:59:23.278Z,1.58
2023-01-04T08:01:52.109Z,1.64
2023-01-04T08:04:27.145Z,1.68
2023-01-04T08:06:58.218Z,1.84
2023-01-04T08:09:26.916Z,1.89
2023-01-04T08:11:55.439Z,1.92
2023-01-04T08:14:25.237Z,1.96
2023-01-04T08:16:53.772Z,2.02
2023-01-04T08:19:22.855Z,2.04
2023-01-04T08:21:51.371Z,2.11
2023-01-04T08:24:22.319Z,2.20
2023-01-04T08:26:50.932Z,2.20
2023-01-04T08:29:19.466Z,2.26
2023-01-04T08:31:49.454Z,2.29
2023-01-04T08:34:18.047Z,2.37
2023-01-04T08:36:49.253Z,2.43
2023-01-04T08:39:18.005Z,2.47
2023-01-04T08:44:42.723Z,2.53
2023-01-04T08:47:12.594Z,2.60
2023-01-04T08:49:41.041Z,2.62
2023-01-04T08:52:11.681Z,2.67
2023-01-04T08:54:40.289Z,2.73
2023-01-04T08:57:08.819Z,2.76
2023-01-04T08:59:37.338Z,2.81
2023-01-04T09:02:11.385Z,2.86
2023-01-04T09:04:41.557Z,2.88
2023-01-04T09:07:10.094Z,2.97
2023-01-04T09:09:38.589Z,3.02
2023-01-04T09:12:07.490Z,3.04
2023-01-04T09:14:36.545Z,3.08
2023-01-04T09:17:05.570Z,3.14
2023-01-04T09:19:34.216Z,3.21
2023-01-04T09:22:04.215Z,3.41
2023-01-04T09:24:33.737Z,3.57
2023-01-04T09:27:03.069Z,3.73
2023-01-04T09:29:31.682Z,3.90
2023-01-04T09:32:00.304Z,4.05
2023-01-04T09:34:29.146Z,4.19
2023-01-04T09:36:57.675Z,4.31
2023-01-04T09:39:30.420Z,4.42
2023-01-04T09:42:01.396Z,4.56
2023-01-04T09:47:38.032Z,4.81
2023-01-04T09:50:13.964Z,4.88
2023-01-04T09:52:52.313Z,5.01
2023-01-04T09:55:37.412Z,5.12
2023-01-04T09:58:23.220Z,5.18
2023-01-04T10:00:56.646Z,5.29
2023-01-04T10:03:28.837Z,5.40
2023-01-04T10:05:58.059Z,5.49
2023-01-04T10:08:26.665Z,5.52
2023-01-04T10:11:08.679Z,5.60
2023-01-04T10:13:53.365Z,5.61
2023-01-04T10:16:44.613Z,5.66
2023-01-04T10:22:26.737Z,5.75
2023-01-04T10:25:07.354Z,5.80
2023-01-04T10:27:48.273Z,5.84
2023-01-04T10:30:30.371Z,5.93
2023-01-04T10:33:11.038Z,5.99
2023-01-04T10:35:40.978Z,6.02
2023-01-04T10:38:13.957Z,6.07
2023-01-04T10:40:42.867Z,6.14
2023-01-04T10:43:20.468Z,6.20
2023-01-04T10:45:55.362Z,6.29
2023-01-04T10:48:32.182Z,6.33
2023-01-04T10:51:09.374Z,6.39
2023-01-04T10:53:45.360Z,6.45
2023-01-04T10:56:26.033Z,6.52
2023-01-04T10:59:04.524Z,6.62
2023-01-04T11:01:39.452Z,6.68
2023-01-04T11:04:14.842Z,6.75
2023-01-04T11:06:48.020Z,6.83
2023-01-04T11:09:25.065Z,6.92
2023-01-04T11:11:57.735Z,6.98
2023-01-04T11:14:33.343Z,7.04
2023-01-04T11:17:08.257Z,7.10
2023-01-04T11:19:37.680Z,7.17
2023-01-04T11:22:15.396Z,7.30
2023-01-04T11:25:07.779Z,7.37
2023-01-04T11:27:42.890Z,7.49
2023-01-04T11:30:18.439Z,7.65
2023-01-04T11:32:54.012Z,7.72
2023-01-04T11:35:42.568Z,7.84
2023-01-04T11:38:16.750Z,7.73
2023-01-04T11:41:05.645Z,7.78
2023-01-04T11:43:35.590Z,7.83
2023-01-04T11:46:06.624Z,7.92
2023-01-04T11:48:38.798Z,7.87
2023-01-04T11:51:19.038Z,8.00
2023-01-04T11:53:57.240Z,8.09
2023-01-04T11:56:27.669Z,7.95
2023-01-04T11:59:11.879Z,8.17
2023-01-04T12:01:44.803Z,8.16
2023-01-04T12:04:16.498Z,8.11
2023-01-04T12:06:51.142Z,8.26
2023-01-04T12:09:21.423Z,8.10
2023-01-04T12:11:52.022Z,8.22
2023-01-04T12:14:26.138Z,8.33
2023-01-04T12:17:05.268Z,8.31
2023-01-04T12:19:34.863Z,8.39
2023-01-04T12:22:05.661Z,8.41
2023-01-04T12:24:35.517Z,8.46
2023-01-04T12:27:04.487Z,8.47
2023-01-04T12:29:41.804Z,8.47
2023-01-04T12:32:41.909Z,8.43
2023-01-04T12:35:43.762Z,8.52
2023-01-04T12:38:12.583Z,8.51
2023-01-04T12:40:55.271Z,8.49
2023-01-04T12:43:28.196Z,8.51
2023-01-04T12:46:59.914Z,8.55
2023-01-04T12:49:52.336Z,8.55
2023-01-04T12:52:55.351Z,8.41
2023-01-04T12:55:54.155Z,8.42
2023-01-04T13:01:31.352Z,8.30
2023-01-04T13:04:06.172Z,8.28
2023-01-04T13:06:46.205Z,8.33
2023-01-04T13:09:24.030Z,8.32
2023-01-04T13:12:07.389Z,8.34
2023-01-04T13:14:40.595Z,8.28
2023-01-04T13:17:21.855Z,8.34
2023-01-04T13:19:50.942Z,8.37
2023-01-04T13:22:29.760Z,8.35
2023-01-04T13:25:01.719Z,8.39
2023-01-04T13:27:30.229Z,8.42
2023-01-04T13:29:59.099Z,8.39
2023-01-04T13:32:29.975Z,8.33
2023-01-04T13:35:05.743Z,8.37
2023-01-04T13:37:43.411Z,8.35
2023-01-04T13:40:26.837Z,8.41
2023-01-04T13:43:11.702Z,8.44
2023-01-04T13:45:52.918Z,8.53
2023-01-04T13:48:23.886Z,8.54
2023-01-04T13:51:04.051Z,8.61
2023-01-04T13:53:34.089Z,8.73
2023-01-04T13:56:04.105Z,8.85
2023-01-04T13:58:34.270Z,9.10
2023-01-04T14:01:05.634Z,9.26
2023-01-04T14:03:38.520Z,9.46
2023-01-04T14:06:18.144Z,9.62
2023-01-04T14:08:54.152Z,9.70
2023-01-04T14:11:42.016Z,9.82
2023-01-04T14:14:23.853Z,9.90
2023-01-04T14:17:05.167Z,9.93
2023-01-04T14:19:42.621Z,10.00
2023-01-04T14:22:39.246Z,10.07
2023-01-04T14:25:56.464Z,10.11
2023-01-04T14:28:49.435Z,10.16
2023-01-04T14:31:35.818Z,10.18
2023-01-04T14:34:12.155Z,10.17
2023-01-04T14:36:43.209Z,10.14
2023-01-04T14:39:26.790Z,10.14
2023-01-04T14:41:57.562Z,10.09
2023-01-04T14:44:30.884Z,10.03
2023-01-04T14:47:01.333Z,10.11
2023-01-04T14:49:31.397Z,10.07
2023-01-04T14:52:01.836Z,10.10
2023-01-04T14:54:31.751Z,10.09
2023-01-04T14:57:00.490Z,10.03
2023-01-04T14:59:30.426Z,10.03
2023-01-04T15:01:59.437Z,10.06
2023-01-04T15:04:28.027Z,9.99
2023-01-04T15:06:58.949Z,9.93
2023-01-04T15:09:28.044Z,9.95
2023-01-04T15:11:56.896Z,9.90
2023-01-04T15:14:25.674Z,9.93
2023-01-04T15:16:55.512Z,9.96
2023-01-04T15:19:23.999Z,10.00
2023-01-04T15:21:52.523Z,10.04
2023-01-04T15:24:21.263Z,10.01
2023-01-04T15:26:49.915Z,9.95
2023-01-04T15:29:18.473Z,9.94
2023-01-04T15:31:47.028Z,9.92
2023-01-04T15:34:17.968Z,9.94
2023-01-04T15:36:46.537Z,9.94
2023-01-04T15:39:15.599Z,9.93
2023-01-04T15:42:01.451Z,9.98
2023-01-04T15:44:29.947Z,10.04
2023-01-04T15:46:59.397Z,10.19
2023-01-04T15:49:31.588Z,10.18
2023-01-04T15:52:00.124Z,10.16
2023-01-04T15:54:29.364Z,10.15
2023-01-04T15:56:57.913Z,10.12
2023-01-04T15:59:26.666Z,10.14
2023-01-04T16:01:55.854Z,10.12
2023-01-04T16:04:25.686Z,10.17
2023-01-04T16:06:55.623Z,10.24
2023-01-04T16:09:24.418Z,10.25
2023-01-04T16:12:10.890Z,10.22
2023-01-04T16:14:39.615Z,10.18
2023-01-04T16:17:08.144Z,10.17
2023-01-04T16:19:36.893Z,10.18
2023-01-04T16:22:07.016Z,10.23
2023-01-04T16:25:09.160Z,10.24
2023-01-04T16:27:23.846Z,10.17
2023-01-04T16:29:52.494Z,10.29
2023-01-04T16:32:25.855Z,10.32
2023-01-04T16:34:54.671Z,10.30
2023-01-04T16:37:28.032Z,10.32
2023-01-04T16:40:06.294Z,10.36
2023-01-04T16:42:36.985Z,10.32
2023-01-04T16:45:06.915Z,10.32
2023-01-04T16:47:39.921Z,10.35
2023-01-04T16:50:09.702Z,10.43
2023-01-04T16:52:40.441Z,10.49
2023-01-04T16:55:10.743Z,10.59
2023-01-04T16:57:39.652Z,10.57
2023-01-04T17:00:09.767Z,10.54
2023-01-04T17:02:39.116Z,10.53
2023-01-04T17:05:08.769Z,10.53
2023-01-04T17:07:37.585Z,10.65
2023-01-04T17:10:08.549Z,10.72
2023-01-04T17:12:52.786Z,10.64
2023-01-04T17:18:12.396Z,10.79
2023-01-04T17:20:41.385Z,10.82
2023-01-04T17:23:10.018Z,10.88
2023-01-04T17:25:40.041Z,10.84
2023-01-04T17:28:08.578Z,10.84
2023-01-04T17:30:39.430Z,10.83
2023-01-04T17:33:07.931Z,10.85
2023-01-04T17:35:36.887Z,10.85
2023-01-04T17:38:06.198Z,10.81
2023-01-04T17:40:35.955Z,10.88
2023-01-04T17:43:05.700Z,10.89
2023-01-04T17:45:34.258Z,10.83
2023-01-04T17:48:02.901Z,10.94
2023-01-04T17:50:31.338Z,10.88
2023-01-04T17:53:00.652Z,10.92
2023-01-04T17:55:29.290Z,10.86
2023-01-04T17:57:58.464Z,10.89
2023-01-04T18:00:28.360Z,10.87
2023-01-04T18:02:56.680Z,10.84
2023-01-04T18:05:25.243Z,10.84
2023-01-04T18:07:53.728Z,10.95
2023-01-04T18:10:40.747Z,10.97
2023-01-04T18:13:11.019Z,10.89
2023-01-04T18:15:54.957Z,10.84
2023-01-04T18:18:29.561Z,10.80
2023-01-04T18:20:59.225Z,10.78
2023-01-04T18:23:30.648Z,10.77
2023-01-04T18:26:02.581Z,10.89
2023-01-04T18:28:31.361Z,10.82
2023-01-04T18:31:01.520Z,10.79
2023-01-04T18:33:30.245Z,10.80
2023-01-04T18:36:02.897Z,10.72
2023-01-04T18:38:31.718Z,10.77
2023-01-04T18:41:00.380Z,10.72
2023-01-04T18:43:29.149Z,10.76
2023-01-04T18:45:57.700Z,10.73
2023-01-04T18:48:28.026Z,10.80
2023-01-04T18:51:03.012Z,10.78
2023-01-04T18:53:31.731Z,10.81
2023-01-04T18:56:00.559Z,10.79
2023-01-04T18:58:30.087Z,10.72
2023-01-04T19:01:02.408Z,10.67
2023-01-04T19:03:34.442Z,10.72
2023-01-04T19:06:07.218Z,10.67
2023-01-04T19:08:36.734Z,10.65
2023-01-04T19:11:05.768Z,10.66
2023-01-04T19:13:34.906Z,10.64
2023-01-04T19:16:03.438Z,10.67
2023-01-04T19:18:33.401Z,10.66
2023-01-04T19:21:02.837Z,10.63
2023-01-04T19:23:31.750Z,10.58
2023-01-04T19:26:00.744Z,10.57
2023-01-04T19:28:29.252Z,10.46
2023-01-04T19:30:57.862Z,10.50
2023-01-04T19:33:26.443Z,10.53
2023-01-04T19:35:56.273Z,10.53
2023-01-04T19:38:24.618Z,10.51
2023-01-04T19:40:56.388Z,10.50
2023-01-04T19:43:25.043Z,10.49
2023-01-04T19:45:53.764Z,10.47
2023-01-04T19:48:23.846Z,10.45
2023-01-04T19:51:04.569Z,10.46
2023-01-04T19:53:33.168Z,10.44
2023-01-04T19:56:02.022Z,10.49
2023-01-04T19:58:30.958Z,10.46
2023-01-04T20:01:00.097Z,10.50
2023-01-04T20:03:29.026Z,10.47
2023-01-04T20:06:04.448Z,10.41
2023-01-04T20:08:33.451Z,10.42
2023-01-04T20:11:03.441Z,10.42
2023-01-04T20:13:33.287Z,10.38
2023-01-04T20:16:04.054Z,10.41
2023-01-04T20:18:34.320Z,10.44
2023-01-04T20:21:09.412Z,10.38
2023-01-04T20:23:38.922Z,10.40
2023-01-04T20:26:11.629Z,10.36
2023-01-04T20:28:41.881Z,10.38
2023-01-04T20:31:12.592Z,10.42
2023-01-04T20:33:41.467Z,10.37
2023-01-04T20:36:14.060Z,10.41
2023-01-04T20:38:44.572Z,10.35
2023-01-04T20:41:16.177Z,10.35
2023-01-04T20:43:45.219Z,10.36
2023-01-04T20:46:15.701Z,10.35
2023-01-04T20:48:44.814Z,10.40
2023-01-04T20:51:17.311Z,10.41
2023-01-04T20:53:46.552Z,10.38
2023-01-04T20:56:17.061Z,10.32
2023-01-04T20:58:46.603Z,10.40
2023-01-04T21:01:16.444Z,10.38
2023-01-04T21:03:45.622Z,10.38
2023-01-04T21:06:17.662Z,10.32
2023-01-04T21:08:47.881Z,10.35
2023-01-04T21:11:16.495Z,10.35
2023-01-04T21:13:45.709Z,10.35
2023-01-04T21:16:15.292Z,10.29
2023-01-04T21:18:44.251Z,10.25
2023-01-04T21:21:16.991Z,10.28
2023-01-04T21:23:45.870Z,10.24
2023-01-04T21:26:16.381Z,10.10
2023-01-04T21:28:46.029Z,10.24
2023-01-04T21:31:16.603Z,10.24
2023-01-04T21:33:46.741Z,10.22
2023-01-04T21:36:19.142Z,10.15
2023-01-04T21:38:49.339Z,10.18
2023-01-04T21:41:18.349Z,10.16
2023-01-04T21:43:46.998Z,10.22
2023-01-04T21:46:16.543Z,10.17
2023-01-04T21:48:48.111Z,10.18
2023-01-04T21:51:18.724Z,10.21
2023-01-04T21:53:47.626Z,10.22
2023-01-04T21:56:18.836Z,10.17
2023-01-04T21:58:47.885Z,10.20
2023-01-04T22:01:18.956Z,10.17
2023-01-04T22:03:48.028Z,10.20
2023-01-04T22:06:18.888Z,10.18
2023-01-04T22:08:48.120Z,10.15
2023-01-04T22:11:17.157Z,10.11
2023-01-04T22:13:45.858Z,10.12
2023-01-04T22:16:16.143Z,10.10
2023-01-04T22:18:48.051Z,10.07
2023-01-04T22:21:20.635Z,10.09
2023-01-04T22:23:49.213Z,10.11
2023-01-04T22:26:17.842Z,10.13
2023-01-04T22:28:47.058Z,10.14
2023-01-04T22:31:15.953Z,10.14
2023-01-04T22:33:44.610Z,10.10
2023-01-04T22:36:21.769Z,10.06
2023-01-04T22:38:53.852Z,10.08
2023-01-04T22:41:24.264Z,10.10
2023-01-04T22:43:57.552Z,10.09
2023-01-04T22:46:27.484Z,10.06
2023-01-04T22:48:56.325Z,10.08
2023-01-04T22:51:27.273Z,10.17
2023-01-04T22:53:59.049Z,10.24
2023-01-04T22:56:28.578Z,10.19
2023-01-04T22:58:58.729Z,10.23
2023-01-04T23:01:29.254Z,10.18
2023-01-04T23:03:59.694Z,10.16
2023-01-04T23:06:29.400Z,10.20
2023-01-04T23:09:01.368Z,10.22
2023-01-04T23:11:31.601Z,10.20
2023-01-04T23:14:02.187Z,10.20
2023-01-04T23:16:32.972Z,10.22
2023-01-04T23:19:02.702Z,10.26
2023-01-04T23:21:31.237Z,10.27
2023-01-04T23:24:01.950Z,10.32
2023-01-04T23:26:31.393Z,10.32
2023-01-04T23:29:00.717Z,10.29
2023-01-04T23:31:31.720Z,10.31
2023-01-04T23:34:02.528Z,10.25
2023-01-04T23:36:33.349Z,10.27
2023-01-04T23:39:06.389Z,10.32
2023-01-04T23:41:47.553Z,10.32
2023-01-04T23:44:19.227Z,10.35
2023-01-04T23:46:51.220Z,10.40
2023-01-04T23:49:19.678Z,10.35
2023-01-04T23:51:48.386Z,10.40
2023-01-04T23:54:18.526Z,10.46
2023-01-04T23:56:47.198Z,10.50
2023-01-04T23:59:15.705Z,10.49
